createdAt,value
2022-08-02T00:00:01.616Z,79.38
2022-08-02T00:01:01.603Z,79.48
2022-08-02T00:02:01.646Z,79.58
2022-08-02T00:03:01.587Z,79.38
2022-08-02T00:04:01.567Z,79.48
2022-08-02T00:05:01.545Z,79.58
2022-08-02T00:06:01.530Z,79.68
2022-08-02T00:07:01.521Z,79.68
2022-08-02T00:08:01.502Z,79.68
2022-08-02T00:09:01.531Z,79.88
2022-08-02T00:10:01.472Z,79.99
2022-08-02T00:11:01.477Z,80.08
2022-08-02T00:12:01.466Z,80.19
2022-08-02T00:13:01.440Z,80.19
2022-08-02T00:14:01.454Z,80.43
2022-08-02T00:15:01.415Z,80.22
2022-08-02T00:16:01.392Z,80.32
2022-08-02T00:17:01.383Z,80.32
2022-08-02T00:18:01.386Z,80.22
2022-08-02T00:19:01.375Z,80.08
2022-08-02T00:20:01.374Z,80.12
2022-08-02T00:21:01.330Z,80.32
2022-08-02T00:22:01.326Z,80.22
2022-08-02T00:23:01.320Z,80.32
2022-08-02T00:24:28.244Z,80.32
2022-08-02T00:25:02.299Z,80.43
2022-08-02T00:26:01.286Z,80.43
2022-08-02T00:27:01.263Z,80.43
2022-08-02T00:28:01.255Z,80.52
2022-08-02T00:29:01.235Z,80.52
2022-08-02T00:30:01.258Z,80.52
2022-08-02T00:31:01.213Z,80.63
2022-08-02T00:32:01.192Z,80.63
2022-08-02T00:33:01.180Z,80.52
2022-08-02T00:34:05.295Z,80.52
2022-08-02T00:35:02.171Z,80.32
2022-08-02T00:36:01.158Z,80.32
2022-08-02T00:37:01.135Z,80.32
2022-08-02T00:38:01.103Z,80.43
2022-08-02T00:39:01.116Z,80.52
2022-08-02T00:40:01.111Z,80.52
2022-08-02T00:41:01.085Z,80.52
2022-08-02T00:42:01.067Z,80.52
2022-08-02T00:43:01.070Z,80.52
2022-08-02T00:44:01.031Z,80.52
2022-08-02T00:45:01.035Z,80.43
2022-08-02T00:46:03.110Z,80.52
2022-08-02T00:47:01.004Z,80.43
2022-08-02T00:48:01.003Z,80.22
2022-08-02T00:49:01.054Z,80.32
2022-08-02T00:50:00.956Z,80.43
2022-08-02T00:51:00.958Z,80.63
2022-08-02T00:52:00.929Z,80.83
2022-08-02T00:53:00.934Z,80.73
2022-08-02T00:54:00.922Z,80.83
2022-08-02T00:55:00.901Z,80.73
2022-08-02T00:56:00.885Z,80.63
2022-08-02T00:57:00.880Z,80.52
2022-08-02T00:58:00.840Z,80.52
2022-08-02T00:59:00.846Z,80.63
2022-08-02T01:00:00.813Z,80.73
2022-08-02T01:01:00.886Z,80.73
2022-08-02T01:02:00.826Z,80.63
2022-08-02T01:03:00.779Z,80.63
2022-08-02T01:04:00.768Z,80.73
2022-08-02T01:05:00.776Z,80.73
2022-08-02T01:06:15.920Z,80.73
2022-08-02T01:07:01.728Z,80.73
2022-08-02T01:08:00.718Z,80.73
2022-08-02T01:09:00.702Z,80.63
2022-08-02T01:10:00.692Z,80.73
2022-08-02T01:11:00.704Z,80.73
2022-08-02T01:12:02.802Z,80.73
2022-08-02T01:13:00.663Z,80.83
2022-08-02T01:14:00.629Z,80.83
2022-08-02T01:15:00.618Z,80.83
2022-08-02T01:16:00.629Z,80.83
2022-08-02T01:17:00.590Z,80.73
2022-08-02T01:18:00.578Z,80.63
2022-08-02T01:19:00.583Z,80.63
2022-08-02T01:20:00.609Z,80.63
2022-08-02T01:21:00.549Z,80.73
2022-08-02T01:22:00.549Z,80.83
2022-08-02T01:23:02.359Z,80.93
2022-08-02T01:24:00.524Z,81.03
2022-08-02T01:25:00.495Z,81.13
2022-08-02T01:26:00.488Z,81.43
2022-08-02T01:27:00.491Z,81.73
2022-08-02T01:28:00.472Z,81.87
2022-08-02T01:29:00.452Z,81.87
2022-08-02T01:30:00.431Z,81.87
2022-08-02T01:31:00.430Z,81.98
2022-08-02T01:32:00.469Z,82.07
2022-08-02T01:33:00.399Z,82.28
2022-08-02T01:34:00.385Z,82.38
2022-08-02T01:35:00.374Z,82.38
2022-08-02T01:36:00.383Z,82.38
2022-08-02T01:37:00.327Z,82.58
2022-08-02T01:38:00.318Z,82.68
2022-08-02T01:39:00.307Z,82.68
2022-08-02T01:40:00.305Z,82.78
2022-08-02T01:41:00.321Z,82.68
2022-08-02T01:42:00.288Z,82.68
2022-08-02T01:43:00.257Z,82.78
2022-08-02T01:44:00.243Z,82.68
2022-08-02T01:45:00.247Z,82.68
2022-08-02T01:46:00.248Z,82.78
2022-08-02T01:47:00.213Z,82.68
2022-08-02T01:48:00.201Z,82.58
2022-08-02T01:49:00.262Z,82.68
2022-08-02T01:50:00.206Z,82.48
2022-08-02T01:51:00.163Z,82.48
2022-08-02T01:52:00.141Z,82.48
2022-08-02T01:53:00.145Z,82.48
2022-08-02T01:54:00.128Z,82.38
2022-08-02T01:55:00.101Z,82.28
2022-08-02T01:56:00.114Z,82.28
2022-08-02T01:57:00.092Z,82.38
2022-08-02T01:58:00.059Z,82.38
2022-08-02T01:59:00.061Z,82.28
2022-08-02T02:00:00.035Z,82.28
2022-08-02T02:01:00.187Z,82.28
2022-08-02T02:02:00.023Z,82.28
2022-08-02T02:02:59.985Z,82.38
2022-08-02T02:03:59.977Z,82.28
2022-08-02T02:04:59.961Z,82.28
2022-08-02T02:05:59.965Z,82.28
2022-08-02T02:06:59.937Z,82.38
2022-08-02T02:07:59.939Z,82.38
2022-08-02T02:08:59.931Z,82.48
2022-08-02T02:09:59.913Z,82.58
2022-08-02T02:12:09.654Z,82.58
2022-08-02T02:12:10.133Z,82.58
2022-08-02T02:13:00.870Z,82.48
2022-08-02T02:13:59.864Z,82.48
2022-08-02T02:14:59.825Z,82.48
2022-08-02T02:15:59.849Z,82.58
2022-08-02T02:16:59.821Z,82.62
2022-08-02T02:18:13.253Z,82.71
2022-08-02T02:19:00.778Z,82.82
2022-08-02T02:19:59.778Z,82.82
2022-08-02T02:20:59.776Z,82.92
2022-08-02T02:21:59.758Z,83.12
2022-08-02T02:22:59.725Z,83.22
2022-08-02T02:23:59.728Z,83.32
2022-08-02T02:24:59.695Z,83.42
2022-08-02T02:25:59.710Z,83.42
2022-08-02T02:26:59.688Z,83.52
2022-08-02T02:27:59.676Z,83.52
2022-08-02T02:28:59.641Z,83.62
2022-08-02T02:29:59.649Z,83.72
2022-08-02T02:30:59.625Z,83.72
2022-08-02T02:31:59.617Z,83.72
2022-08-02T02:32:59.610Z,83.93
2022-08-02T02:33:59.584Z,83.83
2022-08-02T02:34:59.590Z,83.93
2022-08-02T02:35:59.595Z,83.93
2022-08-02T02:36:59.545Z,83.93
2022-08-02T02:37:59.534Z,83.93
2022-08-02T02:38:59.518Z,83.97
2022-08-02T02:39:59.514Z,84.07
2022-08-02T02:40:59.505Z,84.17
2022-08-02T02:41:59.488Z,84.17
2022-08-02T02:42:59.487Z,84.27
2022-08-02T02:43:59.477Z,84.37
2022-08-02T02:44:59.484Z,84.37
2022-08-02T02:45:59.442Z,84.37
2022-08-02T02:46:59.416Z,84.27
2022-08-02T02:47:59.404Z,84.37
2022-08-02T02:48:59.440Z,84.27
2022-08-02T02:49:59.375Z,84.37
2022-08-02T02:50:59.385Z,84.37
2022-08-02T02:51:59.369Z,84.47
2022-08-02T02:52:59.331Z,84.37
2022-08-02T02:54:29.823Z,84.37
2022-08-02T02:55:00.305Z,84.47
2022-08-02T02:56:02.592Z,84.47
2022-08-02T02:56:59.285Z,84.57
2022-08-02T02:57:59.292Z,84.57
2022-08-02T02:58:59.257Z,84.57
2022-08-02T02:59:59.256Z,84.47
2022-08-02T03:00:59.279Z,84.57
2022-08-02T03:01:59.302Z,84.67
2022-08-02T03:02:59.217Z,84.67
2022-08-02T03:03:59.197Z,84.77
2022-08-02T03:04:59.172Z,84.77
2022-08-02T03:05:59.197Z,84.77
2022-08-02T03:06:59.156Z,84.91
2022-08-02T03:07:59.142Z,84.91
2022-08-02T03:08:59.134Z,85.02
2022-08-02T03:09:59.103Z,85.08
2022-08-02T03:10:59.102Z,85.08
2022-08-02T03:11:59.096Z,85.08
2022-08-02T03:12:59.086Z,85.17
2022-08-02T03:13:59.075Z,85.28
2022-08-02T03:14:59.052Z,85.31
2022-08-02T03:15:59.073Z,85.42
2022-08-02T03:16:59.021Z,85.52
2022-08-02T03:17:59.003Z,85.52
2022-08-02T03:18:59.016Z,85.82
2022-08-02T03:19:58.997Z,85.82
2022-08-02T03:20:58.985Z,85.82
2022-08-02T03:21:58.966Z,85.72
2022-08-02T03:22:58.955Z,85.62
2022-08-02T03:23:58.946Z,85.62
2022-08-02T03:24:58.926Z,85.82
2022-08-02T03:25:58.927Z,85.92
2022-08-02T03:26:58.903Z,86.13
2022-08-02T03:27:58.888Z,86.08
2022-08-02T03:28:58.861Z,86.29
2022-08-02T03:29:58.873Z,86.18
2022-08-02T03:30:58.862Z,86.08
2022-08-02T03:31:58.823Z,85.98
2022-08-02T03:32:58.825Z,85.98
2022-08-02T03:33:58.805Z,86.13
2022-08-02T03:34:58.806Z,86.22
2022-08-02T03:35:58.782Z,86.43
2022-08-02T03:36:58.762Z,86.53
2022-08-02T03:37:58.751Z,86.53
2022-08-02T03:38:58.732Z,86.53
2022-08-02T03:39:58.733Z,86.53
2022-08-02T03:40:58.727Z,86.43
2022-08-02T03:41:58.701Z,86.33
2022-08-02T03:42:58.679Z,86.33
2022-08-02T03:43:58.667Z,86.33
2022-08-02T03:44:58.660Z,86.22
2022-08-02T03:45:58.664Z,86.22
2022-08-02T03:46:58.630Z,86.22
2022-08-02T03:47:59.080Z,86.22
2022-08-02T03:48:58.692Z,86.22
2022-08-02T03:49:58.600Z,86.13
2022-08-02T03:50:58.607Z,86.13
2022-08-02T03:51:58.574Z,86.13
2022-08-02T03:52:58.559Z,86.22
2022-08-02T03:53:58.546Z,86.33
2022-08-02T03:54:58.521Z,86.43
2022-08-02T03:55:58.543Z,86.53
2022-08-02T03:56:58.509Z,86.53
2022-08-02T03:57:58.496Z,86.43
2022-08-02T03:58:58.483Z,86.43
2022-08-02T03:59:58.466Z,86.43
2022-08-02T04:00:58.519Z,86.33
2022-08-02T04:01:58.454Z,86.33
2022-08-02T04:02:59.429Z,86.33
2022-08-02T04:03:58.425Z,86.33
2022-08-02T04:04:58.398Z,86.33
2022-08-02T04:05:59.341Z,86.33
2022-08-02T04:06:59.379Z,86.33
2022-08-02T04:08:33.657Z,86.22
2022-08-02T04:08:59.356Z,86.22
2022-08-02T04:09:58.339Z,86.33
2022-08-02T04:10:58.318Z,86.43
2022-08-02T04:11:58.337Z,86.43
2022-08-02T04:12:58.300Z,86.43
2022-08-02T04:13:58.304Z,86.33
2022-08-02T04:14:58.279Z,86.33
2022-08-02T04:15:58.274Z,86.33
2022-08-02T04:16:58.262Z,86.33
2022-08-02T04:17:58.231Z,86.43
2022-08-02T04:18:58.208Z,86.53
2022-08-02T04:19:58.224Z,86.53
2022-08-02T04:20:58.201Z,86.53
2022-08-02T04:21:58.190Z,86.43
2022-08-02T04:22:58.172Z,86.33
2022-08-02T04:23:58.165Z,86.22
2022-08-02T04:24:58.149Z,86.02
2022-08-02T04:25:58.132Z,86.02
2022-08-02T04:27:06.523Z,85.92
2022-08-02T04:28:16.598Z,85.82
2022-08-02T04:28:59.092Z,85.82
2022-08-02T04:29:58.079Z,85.82
2022-08-02T04:30:58.083Z,85.82
2022-08-02T04:31:58.073Z,85.92
2022-08-02T04:32:58.037Z,85.92
2022-08-02T04:33:58.017Z,85.82
2022-08-02T04:35:59.799Z,85.72
2022-08-02T04:36:57.989Z,85.72
2022-08-02T04:38:09.160Z,85.72
2022-08-02T04:38:58.973Z,85.72
2022-08-02T04:39:58.023Z,85.72
2022-08-02T04:40:57.941Z,85.72
2022-08-02T04:41:58.122Z,85.72
2022-08-02T04:42:57.912Z,85.82
2022-08-02T04:43:57.890Z,85.82
2022-08-02T04:44:57.881Z,85.82
2022-08-02T04:45:57.886Z,85.72
2022-08-02T04:46:57.872Z,85.82
2022-08-02T04:48:06.153Z,85.82
2022-08-02T04:48:58.849Z,85.82
2022-08-02T04:49:57.833Z,85.92
2022-08-02T04:50:57.789Z,85.92
2022-08-02T04:51:57.831Z,86.02
2022-08-02T04:52:57.781Z,86.02
2022-08-02T04:54:05.454Z,85.82
2022-08-02T04:54:58.738Z,85.72
2022-08-02T04:55:57.748Z,85.72
2022-08-02T04:56:57.739Z,85.62
2022-08-02T04:57:58.100Z,85.62
2022-08-02T04:58:57.691Z,85.58
2022-08-02T04:59:57.700Z,85.58
2022-08-02T05:00:57.737Z,85.58
2022-08-02T05:01:57.662Z,85.48
2022-08-02T05:02:57.660Z,85.58
2022-08-02T05:03:57.635Z,85.58
2022-08-02T05:04:57.632Z,85.68
2022-08-02T05:05:57.619Z,85.78
2022-08-02T05:06:57.619Z,85.68
2022-08-02T05:07:57.587Z,85.68
2022-08-02T05:08:57.566Z,85.58
2022-08-02T05:09:57.590Z,85.58
2022-08-02T05:10:57.550Z,85.58
2022-08-02T05:11:57.527Z,85.68
2022-08-02T05:12:57.535Z,85.68
2022-08-02T05:13:59.149Z,85.58
2022-08-02T05:14:57.490Z,85.48
2022-08-02T05:15:57.520Z,85.58
2022-08-02T05:16:57.479Z,85.58
2022-08-02T05:17:57.469Z,85.58
2022-08-02T05:18:57.438Z,85.48
2022-08-02T05:19:57.437Z,85.58
2022-08-02T05:20:58.328Z,85.58
2022-08-02T05:21:57.421Z,85.58
2022-08-02T05:22:57.383Z,85.68
2022-08-02T05:23:58.151Z,85.68
2022-08-02T05:24:57.352Z,85.68
2022-08-02T05:25:57.364Z,85.68
2022-08-02T05:26:57.349Z,85.48
2022-08-02T05:27:57.352Z,85.48
2022-08-02T05:28:57.318Z,85.48
2022-08-02T05:29:57.309Z,85.58
2022-08-02T05:30:57.288Z,85.54
2022-08-02T05:31:57.264Z,85.34
2022-08-02T05:32:57.271Z,85.14
2022-08-02T05:33:57.253Z,85.14
2022-08-02T05:34:57.223Z,85.24
2022-08-02T05:35:57.263Z,85.34
2022-08-02T05:36:57.226Z,85.34
2022-08-02T05:37:57.193Z,85.34
2022-08-02T05:39:04.735Z,85.54
2022-08-02T05:39:58.186Z,85.44
2022-08-02T05:40:57.159Z,85.44
2022-08-02T05:41:57.162Z,85.44
2022-08-02T05:42:57.154Z,85.50
2022-08-02T05:43:57.127Z,85.50
2022-08-02T05:44:57.105Z,85.20
2022-08-02T05:45:57.119Z,85.00
2022-08-02T05:46:57.068Z,85.00
2022-08-02T05:47:57.055Z,85.10
2022-08-02T05:48:57.105Z,85.10
2022-08-02T05:49:57.047Z,84.89
2022-08-02T05:50:57.022Z,84.80
2022-08-02T05:51:57.134Z,84.69
2022-08-02T05:52:57.005Z,84.59
2022-08-02T05:53:59.260Z,84.59
2022-08-02T05:54:56.964Z,84.59
2022-08-02T05:55:56.964Z,84.59
2022-08-02T05:56:56.955Z,84.49
2022-08-02T05:57:56.966Z,84.59
2022-08-02T05:58:56.911Z,84.49
2022-08-02T05:59:56.932Z,84.39
2022-08-02T06:00:56.909Z,84.29
2022-08-02T06:01:56.911Z,84.25
2022-08-02T06:02:56.863Z,84.55
2022-08-02T06:03:56.874Z,84.55
2022-08-02T06:04:56.847Z,84.75
2022-08-02T06:05:56.843Z,84.85
2022-08-02T06:06:56.805Z,84.85
2022-08-02T06:07:56.817Z,84.75
2022-08-02T06:08:56.795Z,84.65
2022-08-02T06:09:56.790Z,84.55
2022-08-02T06:10:56.777Z,84.35
2022-08-02T06:12:01.817Z,84.55
2022-08-02T06:12:57.733Z,84.15
2022-08-02T06:13:56.727Z,83.84
2022-08-02T06:14:56.716Z,83.75
2022-08-02T06:15:56.726Z,83.54
2022-08-02T06:16:56.681Z,83.45
2022-08-02T06:17:56.707Z,83.40
2022-08-02T06:18:56.675Z,83.40
2022-08-02T06:19:56.656Z,83.40
2022-08-02T06:20:56.654Z,83.00
2022-08-02T06:22:34.574Z,82.80
2022-08-02T06:22:57.625Z,82.90
2022-08-02T06:23:58.562Z,83.31
2022-08-02T06:24:56.582Z,83.00
2022-08-02T06:25:56.566Z,82.90
2022-08-02T06:26:56.590Z,82.80
2022-08-02T06:27:56.595Z,82.97
2022-08-02T06:28:56.522Z,82.56
2022-08-02T06:29:56.523Z,82.26
2022-08-02T06:30:56.509Z,82.16
2022-08-02T06:31:56.483Z,82.26
2022-08-02T06:32:56.481Z,82.16
2022-08-02T06:33:56.485Z,82.36
2022-08-02T06:34:56.470Z,82.26
2022-08-02T06:35:56.453Z,81.76
2022-08-02T06:36:56.421Z,81.76
2022-08-02T06:37:58.885Z,81.72
2022-08-02T06:38:56.425Z,81.72
2022-08-02T06:39:56.403Z,81.32
2022-08-02T06:40:56.361Z,81.21
2022-08-02T06:41:56.360Z,81.21
2022-08-02T06:42:56.350Z,81.32
2022-08-02T06:43:56.330Z,80.57
2022-08-02T06:44:58.046Z,80.37
2022-08-02T06:45:56.350Z,80.27
2022-08-02T06:47:11.113Z,79.87
2022-08-02T06:47:57.287Z,79.33
2022-08-02T06:48:56.325Z,79.53
2022-08-02T06:49:56.294Z,79.73
2022-08-02T06:50:56.259Z,79.43
2022-08-02T06:51:56.251Z,79.49
2022-08-02T06:52:56.225Z,79.09
2022-08-02T06:53:56.202Z,78.99
2022-08-02T06:54:56.185Z,78.79
2022-08-02T06:55:56.203Z,78.69
2022-08-02T06:56:56.159Z,77.59
2022-08-02T06:57:56.159Z,77.75
2022-08-02T06:58:56.130Z,77.85
2022-08-02T06:59:56.137Z,77.45
2022-08-02T07:00:56.119Z,77.85
2022-08-02T07:01:56.137Z,77.65
2022-08-02T07:02:56.095Z,77.61
2022-08-02T07:03:56.104Z,77.31
2022-08-02T07:04:56.083Z,77.21
2022-08-02T07:05:56.040Z,76.71
2022-08-02T07:06:56.053Z,76.41
2022-08-02T07:07:56.009Z,76.37
2022-08-02T07:09:19.419Z,76.28
2022-08-02T07:10:00.956Z,76.28
2022-08-02T07:10:55.998Z,76.37
2022-08-02T07:11:55.992Z,76.17
2022-08-02T07:12:59.616Z,76.14
2022-08-02T07:13:55.939Z,75.54
2022-08-02T07:14:55.918Z,75.34
2022-08-02T07:15:55.945Z,74.84
2022-08-02T07:16:55.907Z,74.23
2022-08-02T07:17:55.892Z,74.40
2022-08-02T07:18:55.871Z,73.90
2022-08-02T07:19:55.869Z,74.00
2022-08-02T07:20:55.845Z,74.20
2022-08-02T07:22:00.520Z,73.30
2022-08-02T07:22:56.861Z,73.70
2022-08-02T07:23:55.831Z,73.10
2022-08-02T07:24:55.807Z,72.89
2022-08-02T07:26:02.374Z,73.16
2022-08-02T07:27:10.738Z,73.36
2022-08-02T07:27:56.759Z,72.76
2022-08-02T07:28:55.738Z,72.56
2022-08-02T07:29:55.800Z,72.66
2022-08-02T07:30:55.741Z,72.33
2022-08-02T07:31:55.698Z,72.42
2022-08-02T07:32:55.717Z,71.73
2022-08-02T07:33:55.678Z,71.42
2022-08-02T07:34:55.724Z,71.09
2022-08-02T07:35:55.660Z,71.39
2022-08-02T07:36:55.652Z,70.79
2022-08-02T07:38:02.023Z,70.19
2022-08-02T07:38:56.639Z,69.09
2022-08-02T07:39:55.609Z,69.39
2022-08-02T07:40:55.592Z,69.76
2022-08-02T07:41:55.586Z,68.76
2022-08-02T07:43:02.452Z,68.26
2022-08-02T07:43:56.538Z,68.36
2022-08-02T07:44:55.570Z,68.82
2022-08-02T07:45:57.343Z,68.52
2022-08-02T07:46:56.509Z,69.13
2022-08-02T07:47:55.509Z,67.93
2022-08-02T07:48:55.512Z,68.03
2022-08-02T07:49:55.467Z,68.19
2022-08-02T07:50:55.457Z,67.69
2022-08-02T07:51:55.439Z,67.80
2022-08-02T07:52:57.482Z,67.69
2022-08-02T07:54:02.767Z,67.99
2022-08-02T07:54:56.443Z,67.30
2022-08-02T07:55:55.379Z,67.40
2022-08-02T07:56:58.201Z,67.66
2022-08-02T07:57:55.377Z,66.66
2022-08-02T07:58:55.362Z,66.77
2022-08-02T07:59:55.342Z,66.77
2022-08-02T08:00:55.340Z,67.16
2022-08-02T08:01:55.403Z,66.36
2022-08-02T08:02:58.818Z,66.33
2022-08-02T08:03:55.278Z,66.73
2022-08-02T08:04:55.266Z,67.03
2022-08-02T08:05:55.270Z,66.73
2022-08-02T08:06:55.247Z,66.53
2022-08-02T08:07:55.231Z,66.63
2022-08-02T08:08:55.256Z,65.94
2022-08-02T08:09:56.409Z,66.53
2022-08-02T08:10:55.223Z,66.63
2022-08-02T08:11:55.196Z,66.20
2022-08-02T08:12:55.178Z,67.40
2022-08-02T08:13:55.164Z,65.61
2022-08-02T08:14:55.172Z,65.91
2022-08-02T08:15:55.147Z,65.70
2022-08-02T08:16:55.138Z,66.07
2022-08-02T08:17:55.108Z,66.27
2022-08-02T08:18:55.108Z,65.87
2022-08-02T08:19:55.088Z,65.37
2022-08-02T08:20:55.118Z,65.08
2022-08-02T08:21:55.070Z,65.74
2022-08-02T08:22:55.080Z,65.74
2022-08-02T08:23:55.038Z,66.04
2022-08-02T08:24:55.016Z,65.94
2022-08-02T08:25:54.986Z,65.84
2022-08-02T08:26:55.030Z,65.94
2022-08-02T08:27:54.962Z,65.34
2022-08-02T08:28:54.966Z,65.34
2022-08-02T08:29:54.935Z,65.44
2022-08-02T08:30:54.949Z,65.81
2022-08-02T08:31:54.935Z,66.61
2022-08-02T08:32:54.941Z,66.20
2022-08-02T08:33:54.910Z,65.81
2022-08-02T08:34:54.909Z,65.11
2022-08-02T08:35:54.875Z,64.91
2022-08-02T08:36:54.857Z,65.61
2022-08-02T08:37:54.859Z,65.38
2022-08-02T08:38:54.879Z,65.18
2022-08-02T08:39:57.862Z,64.58
2022-08-02T08:40:54.824Z,65.48
2022-08-02T08:41:54.799Z,65.28
2022-08-02T08:42:54.790Z,64.25
2022-08-02T08:43:54.777Z,64.36
2022-08-02T08:44:54.777Z,64.06
2022-08-02T08:45:55.879Z,64.25
2022-08-02T08:46:54.737Z,64.72
2022-08-02T08:47:54.734Z,64.12
2022-08-02T08:48:54.750Z,63.03
2022-08-02T08:49:54.700Z,62.53
2022-08-02T08:50:54.702Z,63.73
2022-08-02T08:51:54.678Z,63.03
2022-08-02T08:52:54.675Z,62.53
2022-08-02T08:53:54.658Z,62.63
2022-08-02T08:54:54.648Z,62.93
2022-08-02T08:55:54.645Z,62.53
2022-08-02T08:56:54.636Z,62.43
2022-08-02T08:57:54.604Z,64.03
2022-08-02T08:58:54.585Z,62.63
2022-08-02T08:59:54.570Z,62.53
2022-08-02T09:00:54.587Z,62.43
2022-08-02T09:01:54.601Z,62.53
2022-08-02T09:02:54.580Z,63.03
2022-08-02T09:03:54.518Z,62.93
2022-08-02T09:04:55.462Z,62.40
2022-08-02T09:05:54.489Z,62.90
2022-08-02T09:06:54.490Z,61.41
2022-08-02T09:07:54.459Z,62.01
2022-08-02T09:08:54.454Z,61.80
2022-08-02T09:09:54.424Z,62.10
2022-08-02T09:10:54.430Z,62.01
2022-08-02T09:11:54.414Z,61.34
2022-08-02T09:12:54.391Z,62.13
2022-08-02T09:13:54.386Z,62.34
2022-08-02T09:14:54.375Z,62.53
2022-08-02T09:15:54.367Z,63.03
2022-08-02T09:16:54.348Z,62.60
2022-08-02T09:17:54.332Z,61.91
2022-08-02T09:18:54.326Z,61.71
2022-08-02T09:19:54.297Z,60.52
2022-08-02T09:20:54.337Z,60.61
2022-08-02T09:21:54.293Z,61.98
2022-08-02T09:22:54.276Z,61.08
2022-08-02T09:23:54.248Z,60.58
2022-08-02T09:24:54.237Z,60.98
2022-08-02T09:25:58.943Z,62.07
2022-08-02T09:26:55.238Z,61.48
2022-08-02T09:27:54.203Z,60.26
2022-08-02T09:28:54.185Z,60.75
2022-08-02T09:30:12.684Z,60.66
2022-08-02T09:30:55.167Z,59.56
2022-08-02T09:31:54.139Z,60.56
2022-08-02T09:32:54.157Z,60.66
2022-08-02T09:33:54.124Z,60.36
2022-08-02T09:34:54.091Z,59.07
2022-08-02T09:36:05.342Z,59.96
2022-08-02T09:36:55.074Z,61.35
2022-08-02T09:37:54.051Z,60.85
2022-08-02T09:38:54.074Z,61.15
2022-08-02T09:39:57.014Z,60.85
2022-08-02T09:40:55.037Z,60.46
2022-08-02T09:41:54.018Z,60.26
2022-08-02T09:42:54.003Z,61.75
2022-08-02T09:44:05.310Z,61.55
2022-08-02T09:44:55.010Z,60.75
2022-08-02T09:45:53.960Z,60.46
2022-08-02T09:46:53.958Z,60.96
2022-08-02T09:47:53.934Z,60.85
2022-08-02T09:48:54.013Z,61.25
2022-08-02T09:49:53.916Z,60.46
2022-08-02T09:50:53.936Z,60.16
2022-08-02T09:51:53.865Z,60.85
2022-08-02T09:52:53.877Z,61.25
2022-08-02T09:54:05.996Z,62.02
2022-08-02T09:54:54.842Z,60.63
2022-08-02T09:55:53.837Z,61.82
2022-08-02T09:56:53.815Z,60.72
2022-08-02T09:57:53.817Z,59.83
2022-08-02T09:59:01.371Z,60.23
2022-08-02T09:59:53.810Z,59.74
2022-08-02T10:00:53.829Z,59.76
2022-08-02T10:02:16.817Z,60.06
2022-08-02T10:02:54.787Z,60.16
2022-08-02T10:03:53.707Z,60.09
2022-08-02T10:04:54.112Z,60.58
2022-08-02T10:05:55.715Z,60.98
2022-08-02T10:06:53.678Z,59.99
2022-08-02T10:07:53.689Z,59.86
2022-08-02T10:08:53.692Z,59.36
2022-08-02T10:09:53.638Z,60.16
2022-08-02T10:10:53.634Z,60.75
2022-08-02T10:11:53.633Z,61.05
2022-08-02T10:12:53.611Z,60.66
2022-08-02T10:13:53.587Z,61.02
2022-08-02T10:14:53.624Z,61.22
2022-08-02T10:15:53.581Z,59.63
2022-08-02T10:16:53.582Z,60.30
2022-08-02T10:17:53.566Z,60.89
2022-08-02T10:18:53.528Z,60.50
2022-08-02T10:20:01.800Z,60.86
2022-08-02T10:20:54.530Z,57.59
2022-08-02T10:21:53.479Z,57.57
2022-08-02T10:22:53.467Z,57.07
2022-08-02T10:23:53.463Z,56.87
2022-08-02T10:24:53.445Z,56.18
2022-08-02T10:25:53.446Z,55.58
2022-08-02T10:26:53.479Z,56.97
2022-08-02T10:28:05.114Z,55.78
2022-08-02T10:28:54.417Z,57.07
2022-08-02T10:29:54.886Z,57.24
2022-08-02T10:30:53.441Z,56.15
2022-08-02T10:31:53.370Z,56.85
2022-08-02T10:32:53.401Z,55.58
2022-08-02T10:33:53.339Z,55.76
2022-08-02T10:34:53.391Z,57.04
2022-08-02T10:36:04.499Z,55.98
2022-08-02T10:36:54.306Z,56.45
2022-08-02T10:37:53.297Z,55.76
2022-08-02T10:38:53.290Z,57.14
2022-08-02T10:39:53.269Z,57.14
2022-08-02T10:40:53.251Z,56.65
2022-08-02T10:41:53.250Z,56.55
2022-08-02T10:42:53.219Z,55.85
2022-08-02T10:43:53.196Z,55.96
2022-08-02T10:44:53.196Z,56.42
2022-08-02T10:45:53.190Z,54.84
2022-08-02T10:46:53.156Z,54.24
2022-08-02T10:47:53.450Z,54.44
2022-08-02T10:48:53.190Z,54.24
2022-08-02T10:49:53.131Z,53.95
2022-08-02T10:50:53.179Z,54.61
2022-08-02T10:51:53.127Z,54.91
2022-08-02T10:52:53.121Z,54.32
2022-08-02T10:53:53.076Z,54.69
2022-08-02T10:54:53.173Z,53.20
2022-08-02T10:55:53.078Z,53.33
2022-08-02T10:56:53.046Z,54.02
2022-08-02T10:57:53.056Z,54.52
2022-08-02T10:58:53.025Z,54.02
2022-08-02T10:59:52.996Z,53.72
2022-08-02T11:00:53.072Z,53.23
2022-08-02T11:01:52.988Z,53.50
2022-08-02T11:02:54.025Z,54.19
2022-08-02T11:03:52.958Z,50.43
2022-08-02T11:04:53.002Z,52.09
2022-08-02T11:05:52.937Z,49.82
2022-08-02T11:06:52.905Z,51.10
2022-08-02T11:07:52.909Z,51.07
2022-08-02T11:08:52.906Z,49.99
2022-08-02T11:09:52.899Z,50.01
2022-08-02T11:10:52.909Z,51.07
2022-08-02T11:11:54.027Z,51.57
2022-08-02T11:12:52.827Z,52.46
2022-08-02T11:13:52.839Z,51.40
2022-08-02T11:14:55.042Z,50.51
2022-08-02T11:15:52.807Z,51.30
2022-08-02T11:16:52.774Z,50.71
2022-08-02T11:17:52.776Z,51.72
2022-08-02T11:18:52.768Z,52.22
2022-08-02T11:19:52.736Z,51.52
2022-08-02T11:20:52.748Z,52.22
2022-08-02T11:21:52.727Z,53.30
2022-08-02T11:22:52.727Z,51.94
2022-08-02T11:23:52.704Z,52.44
2022-08-02T11:24:52.692Z,52.34
2022-08-02T11:26:03.532Z,52.51
2022-08-02T11:26:53.689Z,52.41
2022-08-02T11:27:52.669Z,52.51
2022-08-02T11:28:52.675Z,53.11
2022-08-02T11:29:52.617Z,52.12
2022-08-02T11:30:52.659Z,53.00
2022-08-02T11:31:52.599Z,51.99
2022-08-02T11:32:52.585Z,51.99
2022-08-02T11:33:52.578Z,50.98
2022-08-02T11:34:52.546Z,51.28
2022-08-02T11:35:52.533Z,52.06
2022-08-02T11:36:52.646Z,50.98
2022-08-02T11:37:52.505Z,51.15
2022-08-02T11:38:52.522Z,50.66
2022-08-02T11:39:52.497Z,50.76
2022-08-02T11:40:57.478Z,51.35
2022-08-02T11:41:53.506Z,51.25
2022-08-02T11:42:52.456Z,51.07
2022-08-02T11:43:52.425Z,51.47
2022-08-02T11:44:52.427Z,51.70
2022-08-02T11:45:52.408Z,50.81
2022-08-02T11:46:52.385Z,51.89
2022-08-02T11:47:52.383Z,52.78
2022-08-02T11:48:52.433Z,53.08
2022-08-02T11:49:52.345Z,52.09
2022-08-02T11:50:52.358Z,52.29
2022-08-02T11:51:54.120Z,53.45
2022-08-02T11:52:52.303Z,52.95
2022-08-02T11:53:52.310Z,52.36
2022-08-02T11:54:52.298Z,50.76
2022-08-02T11:55:52.287Z,49.96
2022-08-02T11:56:52.292Z,50.95
2022-08-02T11:58:03.321Z,51.05
2022-08-02T11:58:53.258Z,52.44
2022-08-02T11:59:52.244Z,51.25
2022-08-02T12:00:52.222Z,52.04
2022-08-02T12:01:52.194Z,51.45
2022-08-02T12:02:52.267Z,51.45
2022-08-02T12:03:52.286Z,51.15
2022-08-02T12:04:52.167Z,51.64
2022-08-02T12:06:04.989Z,51.15
2022-08-02T12:06:53.154Z,51.35
2022-08-02T12:07:52.139Z,51.67
2022-08-02T12:08:54.832Z,51.47
2022-08-02T12:09:52.095Z,50.78
2022-08-02T12:10:52.080Z,51.18
2022-08-02T12:11:52.077Z,51.47
2022-08-02T12:12:52.066Z,50.78
2022-08-02T12:13:57.178Z,51.18
2022-08-02T12:14:53.068Z,51.28
2022-08-02T12:15:52.030Z,51.77
2022-08-02T12:16:52.052Z,51.67
2022-08-02T12:17:51.995Z,52.26
2022-08-02T12:18:52.003Z,51.70
2022-08-02T12:19:51.978Z,52.88
2022-08-02T12:20:51.966Z,52.39
2022-08-02T12:21:51.943Z,52.98
2022-08-02T12:22:51.938Z,52.19
2022-08-02T12:23:59.416Z,52.98
2022-08-02T12:24:52.900Z,52.48
2022-08-02T12:25:51.888Z,53.38
2022-08-02T12:26:51.893Z,51.89
2022-08-02T12:27:53.426Z,51.30
2022-08-02T12:28:51.856Z,52.48
2022-08-02T12:29:57.757Z,51.89
2022-08-02T12:30:52.838Z,51.10
2022-08-02T12:31:57.184Z,52.46
2022-08-02T12:32:52.820Z,51.67
2022-08-02T12:33:51.808Z,52.46
2022-08-02T12:34:51.780Z,51.47
2022-08-02T12:35:51.767Z,52.17
2022-08-02T12:36:51.736Z,51.87
2022-08-02T12:37:51.725Z,52.06
2022-08-02T12:38:51.758Z,52.26
2022-08-02T12:39:51.722Z,51.87
2022-08-02T12:40:51.714Z,52.06
2022-08-02T12:41:51.691Z,51.77
2022-08-02T12:42:51.662Z,51.70
2022-08-02T12:43:51.647Z,51.79
2022-08-02T12:44:51.673Z,51.99
2022-08-02T12:45:51.634Z,51.59
2022-08-02T12:46:51.629Z,52.19
2022-08-02T12:47:51.604Z,52.06
2022-08-02T12:49:15.948Z,51.87
2022-08-02T12:49:52.667Z,52.46
2022-08-02T12:50:51.585Z,52.95
2022-08-02T12:51:59.966Z,51.87
2022-08-02T12:52:52.547Z,52.26